sensor_id;sensor_type;location;lat;lon;timestamp;temperature;humidity
69359;HTU21D;56520;49.066;8.660;2023-11-21T00:01:52;8.75;93.77
69359;HTU21D;56520;49.066;8.660;2023-11-21T00:04:17;8.74;93.94
69359;HTU21D;56520;49.066;8.660;2023-11-21T00:06:42;8.72;94.17
69359;HTU21D;56520;49.066;8.660;2023-11-21T00:09:08;8.72;94.16
69359;HTU21D;56520;49.066;8.660;2023-11-21T00:11:35;8.72;94.22
69359;HTU21D;56520;49.066;8.660;2023-11-21T00:14:00;8.74;94.40
69359;HTU21D;56520;49.066;8.660;2023-11-21T00:16:25;8.74;94.50
69359;HTU21D;56520;49.066;8.660;2023-11-21T00:18:51;8.78;94.43
69359;HTU21D;56520;49.066;8.660;2023-11-21T00:21:16;8.79;94.30
69359;HTU21D;56520;49.066;8.660;2023-11-21T00:23:42;8.83;94.19
69359;HTU21D;56520;49.066;8.660;2023-11-21T00:26:07;8.93;93.30
69359;HTU21D;56520;49.066;8.660;2023-11-21T00:28:33;8.93;93.28
69359;HTU21D;56520;49.066;8.660;2023-11-21T00:30:58;8.96;93.11
69359;HTU21D;56520;49.066;8.660;2023-11-21T00:33:24;8.96;93.14
69359;HTU21D;56520;49.066;8.660;2023-11-21T00:35:50;9.06;92.68
69359;HTU21D;56520;49.066;8.660;2023-11-21T00:38:15;9.12;92.29
69359;HTU21D;56520;49.066;8.660;2023-11-21T00:40:45;9.18;91.95
69359;HTU21D;56520;49.066;8.660;2023-11-21T00:43:10;9.14;91.98
69359;HTU21D;56520;49.066;8.660;2023-11-21T00:45:35;9.08;92.27
69359;HTU21D;56520;49.066;8.660;2023-11-21T00:48:02;9.04;92.56
69359;HTU21D;56520;49.066;8.660;2023-11-21T00:50:29;9.03;92.34
69359;HTU21D;56520;49.066;8.660;2023-11-21T00:52:54;9.05;92.01
69359;HTU21D;56520;49.066;8.660;2023-11-21T00:55:20;9.02;91.94
69359;HTU21D;56520;49.066;8.660;2023-11-21T00:57:46;8.93;92.23
69359;HTU21D;56520;49.066;8.660;2023-11-21T01:00:12;8.90;92.44
69359;HTU21D;56520;49.066;8.660;2023-11-21T01:02:44;8.95;92.30
69359;HTU21D;56520;49.066;8.660;2023-11-21T01:05:10;8.95;92.27
69359;HTU21D;56520;49.066;8.660;2023-11-21T01:07:36;8.98;91.99
69359;HTU21D;56520;49.066;8.660;2023-11-21T01:10:03;9.11;91.13
69359;HTU21D;56520;49.066;8.660;2023-11-21T01:12:31;9.17;90.79
69359;HTU21D;56520;49.066;8.660;2023-11-21T01:14:56;9.18;90.92
69359;HTU21D;56520;49.066;8.660;2023-11-21T01:17:25;9.16;90.99
69359;HTU21D;56520;49.066;8.660;2023-11-21T01:19:50;9.20;90.98
69359;HTU21D;56520;49.066;8.660;2023-11-21T01:22:16;9.31;90.41
69359;HTU21D;56520;49.066;8.660;2023-11-21T01:24:41;9.30;90.62
69359;HTU21D;56520;49.066;8.660;2023-11-21T01:27:07;9.32;90.36
69359;HTU21D;56520;49.066;8.660;2023-11-21T01:29:32;9.29;90.54
69359;HTU21D;56520;49.066;8.660;2023-11-21T01:31:57;9.24;90.75
69359;HTU21D;56520;49.066;8.660;2023-11-21T01:34:23;9.33;90.24
69359;HTU21D;56520;49.066;8.660;2023-11-21T01:36:48;9.29;90.47
69359;HTU21D;56520;49.066;8.660;2023-11-21T01:39:14;9.30;90.44
69359;HTU21D;56520;49.066;8.660;2023-11-21T01:41:41;9.34;90.36
69359;HTU21D;56520;49.066;8.660;2023-11-21T01:44:09;9.37;90.11
69359;HTU21D;56520;49.066;8.660;2023-11-21T01:46:35;9.26;90.43
69359;HTU21D;56520;49.066;8.660;2023-11-21T01:49:01;9.21;90.75
69359;HTU21D;56520;49.066;8.660;2023-11-21T01:51:26;9.17;91.02
69359;HTU21D;56520;49.066;8.660;2023-11-21T01:53:52;9.19;91.02
69359;HTU21D;56520;49.066;8.660;2023-11-21T01:56:18;9.22;90.71
69359;HTU21D;56520;49.066;8.660;2023-11-21T01:58:43;9.31;90.46
69359;HTU21D;56520;49.066;8.660;2023-11-21T02:01:09;9.39;90.17
69359;HTU21D;56520;49.066;8.660;2023-11-21T02:03:35;9.45;90.69
69359;HTU21D;56520;49.066;8.660;2023-11-21T02:06:01;9.40;91.32
69359;HTU21D;56520;49.066;8.660;2023-11-21T02:08:26;9.26;92.08
69359;HTU21D;56520;49.066;8.660;2023-11-21T02:10:52;9.16;92.69
69359;HTU21D;56520;49.066;8.660;2023-11-21T02:13:17;9.06;93.44
69359;HTU21D;56520;49.066;8.660;2023-11-21T02:15:43;8.90;94.23
69359;HTU21D;56520;49.066;8.660;2023-11-21T02:18:08;8.83;94.19
69359;HTU21D;56520;49.066;8.660;2023-11-21T02:20:36;8.90;94.38
69359;HTU21D;56520;49.066;8.660;2023-11-21T02:23:04;8.98;93.91
69359;HTU21D;56520;49.066;8.660;2023-11-21T02:25:31;9.01;93.80
69359;HTU21D;56520;49.066;8.660;2023-11-21T02:27:58;8.96;93.87
69359;HTU21D;56520;49.066;8.660;2023-11-21T02:30:24;8.95;94.16
69359;HTU21D;56520;49.066;8.660;2023-11-21T02:32:50;8.89;94.81
69359;HTU21D;56520;49.066;8.660;2023-11-21T02:35:18;8.86;94.92
69359;HTU21D;56520;49.066;8.660;2023-11-21T02:37:49;8.85;95.29
69359;HTU21D;56520;49.066;8.660;2023-11-21T02:40:15;8.85;95.27
69359;HTU21D;56520;49.066;8.660;2023-11-21T02:42:45;8.83;95.45
69359;HTU21D;56520;49.066;8.660;2023-11-21T02:45:15;8.80;95.39
69359;HTU21D;56520;49.066;8.660;2023-11-21T02:47:45;8.76;95.52
69359;HTU21D;56520;49.066;8.660;2023-11-21T02:50:11;8.78;95.55
69359;HTU21D;56520;49.066;8.660;2023-11-21T02:52:36;8.77;95.42
69359;HTU21D;56520;49.066;8.660;2023-11-21T02:55:02;8.74;95.43
69359;HTU21D;56520;49.066;8.660;2023-11-21T02:57:28;8.74;95.48
69359;HTU21D;56520;49.066;8.660;2023-11-21T02:59:53;8.78;95.40
69359;HTU21D;56520;49.066;8.660;2023-11-21T03:02:19;8.79;95.23
69359;HTU21D;56520;49.066;8.660;2023-11-21T03:04:45;8.79;95.02
69359;HTU21D;56520;49.066;8.660;2023-11-21T03:07:10;8.76;95.05
69359;HTU21D;56520;49.066;8.660;2023-11-21T03:09:36;8.82;95.00
69359;HTU21D;56520;49.066;8.660;2023-11-21T03:12:01;8.87;94.67
69359;HTU21D;56520;49.066;8.660;2023-11-21T03:14:27;8.91;94.43
69359;HTU21D;56520;49.066;8.660;2023-11-21T03:16:52;8.89;94.33
69359;HTU21D;56520;49.066;8.660;2023-11-21T03:19:18;8.86;94.46
69359;HTU21D;56520;49.066;8.660;2023-11-21T03:21:43;8.88;94.43
69359;HTU21D;56520;49.066;8.660;2023-11-21T03:24:09;8.79;94.78
69359;HTU21D;56520;49.066;8.660;2023-11-21T03:26:34;8.80;94.72
69359;HTU21D;56520;49.066;8.660;2023-11-21T03:28:59;8.86;94.62
69359;HTU21D;56520;49.066;8.660;2023-11-21T03:31:25;8.82;94.56
69359;HTU21D;56520;49.066;8.660;2023-11-21T03:33:51;8.78;94.78
69359;HTU21D;56520;49.066;8.660;2023-11-21T03:36:19;8.77;94.89
69359;HTU21D;56520;49.066;8.660;2023-11-21T03:38:44;8.74;94.95
69359;HTU21D;56520;49.066;8.660;2023-11-21T03:41:10;8.74;94.89
69359;HTU21D;56520;49.066;8.660;2023-11-21T03:43:36;8.75;94.87
69359;HTU21D;56520;49.066;8.660;2023-11-21T03:46:02;8.70;95.00
69359;HTU21D;56520;49.066;8.660;2023-11-21T03:48:27;8.70;94.98
69359;HTU21D;56520;49.066;8.660;2023-11-21T03:50:53;8.65;95.15
69359;HTU21D;56520;49.066;8.660;2023-11-21T03:53:18;8.62;95.29
69359;HTU21D;56520;49.066;8.660;2023-11-21T03:55:44;8.66;95.35
69359;HTU21D;56520;49.066;8.660;2023-11-21T03:58:09;8.67;95.20
69359;HTU21D;56520;49.066;8.660;2023-11-21T04:00:34;8.66;95.23
69359;HTU21D;56520;49.066;8.660;2023-11-21T04:03:00;8.72;95.04
69359;HTU21D;56520;49.066;8.660;2023-11-21T04:05:25;8.73;94.87
69359;HTU21D;56520;49.066;8.660;2023-11-21T04:07:51;8.71;94.84
69359;HTU21D;56520;49.066;8.660;2023-11-21T04:10:17;8.75;94.87
69359;HTU21D;56520;49.066;8.660;2023-11-21T04:12:43;8.75;94.72
69359;HTU21D;56520;49.066;8.660;2023-11-21T04:15:09;8.80;94.59
69359;HTU21D;56520;49.066;8.660;2023-11-21T04:17:35;8.78;94.74
69359;HTU21D;56520;49.066;8.660;2023-11-21T04:20:02;8.87;94.49
69359;HTU21D;56520;49.066;8.660;2023-11-21T04:22:28;8.82;94.55
69359;HTU21D;56520;49.066;8.660;2023-11-21T04:24:54;8.80;94.65
69359;HTU21D;56520;49.066;8.660;2023-11-21T04:27:21;8.80;94.83
69359;HTU21D;56520;49.066;8.660;2023-11-21T04:29:46;8.83;94.81
69359;HTU21D;56520;49.066;8.660;2023-11-21T04:32:11;8.86;94.60
69359;HTU21D;56520;49.066;8.660;2023-11-21T04:34:37;8.85;94.54
69359;HTU21D;56520;49.066;8.660;2023-11-21T04:37:03;8.83;94.59
69359;HTU21D;56520;49.066;8.660;2023-11-21T04:39:31;8.78;94.77
69359;HTU21D;56520;49.066;8.660;2023-11-21T04:41:56;8.78;94.98
69359;HTU21D;56520;49.066;8.660;2023-11-21T04:44:22;8.78;95.00
69359;HTU21D;56520;49.066;8.660;2023-11-21T04:46:47;8.88;94.49
69359;HTU21D;56520;49.066;8.660;2023-11-21T04:49:13;8.91;94.20
69359;HTU21D;56520;49.066;8.660;2023-11-21T04:51:39;8.88;94.32
69359;HTU21D;56520;49.066;8.660;2023-11-21T04:54:04;8.86;94.49
69359;HTU21D;56520;49.066;8.660;2023-11-21T04:56:31;8.87;94.37
69359;HTU21D;56520;49.066;8.660;2023-11-21T04:58:56;8.83;94.47
69359;HTU21D;56520;49.066;8.660;2023-11-21T05:01:21;8.86;94.56
69359;HTU21D;56520;49.066;8.660;2023-11-21T05:03:47;8.88;94.47
69359;HTU21D;56520;49.066;8.660;2023-11-21T05:06:14;8.87;94.43
69359;HTU21D;56520;49.066;8.660;2023-11-21T05:08:39;8.88;94.33
69359;HTU21D;56520;49.066;8.660;2023-11-21T05:11:05;8.87;94.43
69359;HTU21D;56520;49.066;8.660;2023-11-21T05:13:33;8.88;94.39
69359;HTU21D;56520;49.066;8.660;2023-11-21T05:15:59;8.82;94.61
69359;HTU21D;56520;49.066;8.660;2023-11-21T05:18:24;8.80;94.84
69359;HTU21D;56520;49.066;8.660;2023-11-21T05:20:52;8.88;94.74
69359;HTU21D;56520;49.066;8.660;2023-11-21T05:23:19;8.86;94.75
69359;HTU21D;56520;49.066;8.660;2023-11-21T05:25:44;8.85;94.79
69359;HTU21D;56520;49.066;8.660;2023-11-21T05:28:11;8.81;94.93
69359;HTU21D;56520;49.066;8.660;2023-11-21T05:30:37;8.79;95.04
69359;HTU21D;56520;49.066;8.660;2023-11-21T05:33:04;8.78;95.30
69359;HTU21D;56520;49.066;8.660;2023-11-21T05:35:29;8.78;95.19
69359;HTU21D;56520;49.066;8.660;2023-11-21T05:37:55;8.77;95.24
69359;HTU21D;56520;49.066;8.660;2023-11-21T05:40:20;8.78;95.33
69359;HTU21D;56520;49.066;8.660;2023-11-21T05:42:47;8.76;95.33
69359;HTU21D;56520;49.066;8.660;2023-11-21T05:45:13;8.72;95.46
69359;HTU21D;56520;49.066;8.660;2023-11-21T05:47:44;8.67;95.64
69359;HTU21D;56520;49.066;8.660;2023-11-21T05:50:12;8.68;95.72
69359;HTU21D;56520;49.066;8.660;2023-11-21T05:52:40;8.70;95.81
69359;HTU21D;56520;49.066;8.660;2023-11-21T05:55:07;8.68;95.85
69359;HTU21D;56520;49.066;8.660;2023-11-21T05:57:33;8.66;95.92
69359;HTU21D;56520;49.066;8.660;2023-11-21T05:59:59;8.68;96.05
69359;HTU21D;56520;49.066;8.660;2023-11-21T06:02:25;8.73;96.00
69359;HTU21D;56520;49.066;8.660;2023-11-21T06:04:51;8.73;96.00
69359;HTU21D;56520;49.066;8.660;2023-11-21T06:07:16;8.78;95.79
69359;HTU21D;56520;49.066;8.660;2023-11-21T06:09:42;8.82;95.59
69359;HTU21D;56520;49.066;8.660;2023-11-21T06:12:07;8.78;95.72
69359;HTU21D;56520;49.066;8.660;2023-11-21T06:14:32;8.75;95.92
69359;HTU21D;56520;49.066;8.660;2023-11-21T06:17:00;8.73;96.07
69359;HTU21D;56520;49.066;8.660;2023-11-21T06:19:25;8.74;96.14
69359;HTU21D;56520;49.066;8.660;2023-11-21T06:21:51;8.70;96.28
69359;HTU21D;56520;49.066;8.660;2023-11-21T06:24:16;8.66;96.46
69359;HTU21D;56520;49.066;8.660;2023-11-21T06:26:42;8.70;96.49
69359;HTU21D;56520;49.066;8.660;2023-11-21T06:29:07;8.66;96.69
69359;HTU21D;56520;49.066;8.660;2023-11-21T06:31:33;8.63;96.91
69359;HTU21D;56520;49.066;8.660;2023-11-21T06:33:58;8.60;96.98
69359;HTU21D;56520;49.066;8.660;2023-11-21T06:36:25;8.58;97.11
69359;HTU21D;56520;49.066;8.660;2023-11-21T06:38:51;8.61;97.29
69359;HTU21D;56520;49.066;8.660;2023-11-21T06:41:17;8.63;97.30
69359;HTU21D;56520;49.066;8.660;2023-11-21T06:43:42;8.60;97.38
69359;HTU21D;56520;49.066;8.660;2023-11-21T06:46:12;8.60;97.53
69359;HTU21D;56520;49.066;8.660;2023-11-21T06:48:41;8.58;97.55
69359;HTU21D;56520;49.066;8.660;2023-11-21T06:51:07;8.58;97.64
69359;HTU21D;56520;49.066;8.660;2023-11-21T06:53:32;8.57;97.71
69359;HTU21D;56520;49.066;8.660;2023-11-21T06:55:58;8.61;97.76
69359;HTU21D;56520;49.066;8.660;2023-11-21T06:58:23;8.62;97.81
69359;HTU21D;56520;49.066;8.660;2023-11-21T07:00:49;8.59;97.87
69359;HTU21D;56520;49.066;8.660;2023-11-21T07:03:15;8.56;97.93
69359;HTU21D;56520;49.066;8.660;2023-11-21T07:05:40;8.59;97.93
69359;HTU21D;56520;49.066;8.660;2023-11-21T07:08:06;8.59;97.99
69359;HTU21D;56520;49.066;8.660;2023-11-21T07:10:32;8.62;98.00
69359;HTU21D;56520;49.066;8.660;2023-11-21T07:12:58;8.65;97.94
69359;HTU21D;56520;49.066;8.660;2023-11-21T07:15:23;8.63;97.98
69359;HTU21D;56520;49.066;8.660;2023-11-21T07:17:51;8.66;97.91
69359;HTU21D;56520;49.066;8.660;2023-11-21T07:20:16;8.66;97.93
69359;HTU21D;56520;49.066;8.660;2023-11-21T07:22:42;8.67;97.93
69359;HTU21D;56520;49.066;8.660;2023-11-21T07:25:08;8.70;97.89
69359;HTU21D;56520;49.066;8.660;2023-11-21T07:27:34;8.71;97.90
69359;HTU21D;56520;49.066;8.660;2023-11-21T07:30:01;8.70;97.95
69359;HTU21D;56520;49.066;8.660;2023-11-21T07:32:30;8.70;97.99
69359;HTU21D;56520;49.066;8.660;2023-11-21T07:34:55;8.73;98.00
69359;HTU21D;56520;49.066;8.660;2023-11-21T07:37:22;8.74;97.99
69359;HTU21D;56520;49.066;8.660;2023-11-21T07:39:49;8.74;98.00
69359;HTU21D;56520;49.066;8.660;2023-11-21T07:42:15;8.73;98.01
69359;HTU21D;56520;49.066;8.660;2023-11-21T07:44:41;8.74;98.01
69359;HTU21D;56520;49.066;8.660;2023-11-21T07:47:07;8.74;98.04
69359;HTU21D;56520;49.066;8.660;2023-11-21T07:49:32;8.76;98.04
69359;HTU21D;56520;49.066;8.660;2023-11-21T07:51:58;8.79;98.05
69359;HTU21D;56520;49.066;8.660;2023-11-21T07:54:23;8.80;98.07
69359;HTU21D;56520;49.066;8.660;2023-11-21T07:56:48;8.83;98.07
69359;HTU21D;56520;49.066;8.660;2023-11-21T07:59:14;8.87;98.08
69359;HTU21D;56520;49.066;8.660;2023-11-21T08:01:39;8.91;98.08
69359;HTU21D;56520;49.066;8.660;2023-11-21T08:04:08;8.93;98.06
69359;HTU21D;56520;49.066;8.660;2023-11-21T08:06:33;8.94;98.02
69359;HTU21D;56520;49.066;8.660;2023-11-21T08:08:59;8.95;98.02
69359;HTU21D;56520;49.066;8.660;2023-11-21T08:11:25;8.94;98.00
69359;HTU21D;56520;49.066;8.660;2023-11-21T08:13:51;8.93;97.99
69359;HTU21D;56520;49.066;8.660;2023-11-21T08:16:17;8.97;97.98
69359;HTU21D;56520;49.066;8.660;2023-11-21T08:18:42;9.00;97.97
69359;HTU21D;56520;49.066;8.660;2023-11-21T08:21:08;9.02;97.97
69359;HTU21D;56520;49.066;8.660;2023-11-21T08:23:33;9.03;97.97
69359;HTU21D;56520;49.066;8.660;2023-11-21T08:25:59;9.05;97.96
69359;HTU21D;56520;49.066;8.660;2023-11-21T08:28:25;9.08;97.94
69359;HTU21D;56520;49.066;8.660;2023-11-21T08:30:53;9.12;97.95
69359;HTU21D;56520;49.066;8.660;2023-11-21T08:33:22;9.14;97.94
69359;HTU21D;56520;49.066;8.660;2023-11-21T08:35:48;9.18;97.93
69359;HTU21D;56520;49.066;8.660;2023-11-21T08:38:14;9.22;97.88
69359;HTU21D;56520;49.066;8.660;2023-11-21T08:40:39;9.25;97.87
69359;HTU21D;56520;49.066;8.660;2023-11-21T08:43:05;9.25;97.81
69359;HTU21D;56520;49.066;8.660;2023-11-21T08:45:30;9.25;97.78
69359;HTU21D;56520;49.066;8.660;2023-11-21T08:47:56;9.29;97.74
69359;HTU21D;56520;49.066;8.660;2023-11-21T08:50:21;9.30;97.68
69359;HTU21D;56520;49.066;8.660;2023-11-21T08:52:47;9.31;97.62
69359;HTU21D;56520;49.066;8.660;2023-11-21T08:55:13;9.35;97.58
69359;HTU21D;56520;49.066;8.660;2023-11-21T08:57:39;9.39;97.51
69359;HTU21D;56520;49.066;8.660;2023-11-21T09:00:07;9.46;97.45
69359;HTU21D;56520;49.066;8.660;2023-11-21T09:02:40;9.48;97.36
69359;HTU21D;56520;49.066;8.660;2023-11-21T09:05:09;9.52;97.23
69359;HTU21D;56520;49.066;8.660;2023-11-21T09:07:35;9.51;97.14
69359;HTU21D;56520;49.066;8.660;2023-11-21T09:10:02;9.51;97.07
69359;HTU21D;56520;49.066;8.660;2023-11-21T09:12:28;9.53;97.03
69359;HTU21D;56520;49.066;8.660;2023-11-21T09:14:53;9.56;96.98
69359;HTU21D;56520;49.066;8.660;2023-11-21T09:17:19;9.60;96.94
69359;HTU21D;56520;49.066;8.660;2023-11-21T09:19:45;9.62;96.87
69359;HTU21D;56520;49.066;8.660;2023-11-21T09:22:15;9.62;96.75
69359;HTU21D;56520;49.066;8.660;2023-11-21T09:24:40;9.62;96.71
69359;HTU21D;56520;49.066;8.660;2023-11-21T09:27:05;9.63;96.67
69359;HTU21D;56520;49.066;8.660;2023-11-21T09:29:31;9.62;96.62
69359;HTU21D;56520;49.066;8.660;2023-11-21T09:31:57;9.61;96.58
69359;HTU21D;56520;49.066;8.660;2023-11-21T09:34:24;9.56;96.52
69359;HTU21D;56520;49.066;8.660;2023-11-21T09:36:50;9.54;96.55
69359;HTU21D;56520;49.066;8.660;2023-11-21T09:39:16;9.49;96.55
69359;HTU21D;56520;49.066;8.660;2023-11-21T09:41:46;9.47;96.61
69359;HTU21D;56520;49.066;8.660;2023-11-21T09:44:18;9.44;96.65
69359;HTU21D;56520;49.066;8.660;2023-11-21T09:46:47;9.40;96.68
69359;HTU21D;56520;49.066;8.660;2023-11-21T09:49:18;9.41;96.72
69359;HTU21D;56520;49.066;8.660;2023-11-21T09:51:47;9.45;96.73
69359;HTU21D;56520;49.066;8.660;2023-11-21T09:54:14;9.45;96.73
69359;HTU21D;56520;49.066;8.660;2023-11-21T09:56:41;9.46;96.73
69359;HTU21D;56520;49.066;8.660;2023-11-21T09:59:13;9.47;96.75
69359;HTU21D;56520;49.066;8.660;2023-11-21T10:01:38;9.46;96.75
69359;HTU21D;56520;49.066;8.660;2023-11-21T10:04:06;9.45;96.78
69359;HTU21D;56520;49.066;8.660;2023-11-21T10:06:38;9.47;96.83
69359;HTU21D;56520;49.066;8.660;2023-11-21T10:09:04;9.48;96.87
69359;HTU21D;56520;49.066;8.660;2023-11-21T10:11:41;9.48;96.90
69359;HTU21D;56520;49.066;8.660;2023-11-21T10:14:08;9.48;96.94
69359;HTU21D;56520;49.066;8.660;2023-11-21T10:16:36;9.45;96.99
69359;HTU21D;56520;49.066;8.660;2023-11-21T10:19:03;9.45;97.03
69359;HTU21D;56520;49.066;8.660;2023-11-21T10:21:29;9.42;97.06
69359;HTU21D;56520;49.066;8.660;2023-11-21T10:23:55;9.48;97.13
69359;HTU21D;56520;49.066;8.660;2023-11-21T10:26:22;9.45;97.11
69359;HTU21D;56520;49.066;8.660;2023-11-21T10:28:58;9.42;97.13
69359;HTU21D;56520;49.066;8.660;2023-11-21T10:31:26;9.40;97.14
69359;HTU21D;56520;49.066;8.660;2023-11-21T10:33:52;9.39;97.18
69359;HTU21D;56520;49.066;8.660;2023-11-21T10:36:27;9.40;97.25
69359;HTU21D;56520;49.066;8.660;2023-11-21T10:38:53;9.41;97.29
69359;HTU21D;56520;49.066;8.660;2023-11-21T10:41:20;9.48;97.29
69359;HTU21D;56520;49.066;8.660;2023-11-21T10:43:46;9.59;97.23
69359;HTU21D;56520;49.066;8.660;2023-11-21T10:46:11;9.64;97.18
69359;HTU21D;56520;49.066;8.660;2023-11-21T10:48:37;9.70;97.11
69359;HTU21D;56520;49.066;8.660;2023-11-21T10:51:07;9.76;96.99
69359;HTU21D;56520;49.066;8.660;2023-11-21T10:53:39;9.85;96.87
69359;HTU21D;56520;49.066;8.660;2023-11-21T10:56:08;9.93;96.75
69359;HTU21D;56520;49.066;8.660;2023-11-21T10:58:37;10.04;96.62
69359;HTU21D;56520;49.066;8.660;2023-11-21T11:01:06;10.10;96.43
69359;HTU21D;56520;49.066;8.660;2023-11-21T11:03:32;10.11;96.30
69359;HTU21D;56520;49.066;8.660;2023-11-21T11:05:59;10.11;96.24
69359;HTU21D;56520;49.066;8.660;2023-11-21T11:08:26;10.06;95.81
69359;HTU21D;56520;49.066;8.660;2023-11-21T11:10:53;10.04;95.72
69359;HTU21D;56520;49.066;8.660;2023-11-21T11:13:18;10.00;95.61
69359;HTU21D;56520;49.066;8.660;2023-11-21T11:15:47;10.00;95.49
69359;HTU21D;56520;49.066;8.660;2023-11-21T11:18:13;10.00;95.42
69359;HTU21D;56520;49.066;8.660;2023-11-21T11:20:40;10.00;95.32
69359;HTU21D;56520;49.066;8.660;2023-11-21T11:24:29;10.04;95.30
69359;HTU21D;56520;49.066;8.660;2023-11-21T11:29:28;10.18;94.94
69359;HTU21D;56520;49.066;8.660;2023-11-21T11:34:53;10.41;94.49
69359;HTU21D;56520;49.066;8.660;2023-11-21T11:37:20;10.52;94.31
69359;HTU21D;56520;49.066;8.660;2023-11-21T11:39:49;10.60;93.99
69359;HTU21D;56520;49.066;8.660;2023-11-21T11:42:17;10.66;93.66
69359;HTU21D;56520;49.066;8.660;2023-11-21T11:47:27;10.78;93.28
69359;HTU21D;56520;49.066;8.660;2023-11-21T11:50:07;10.73;92.71
69359;HTU21D;56520;49.066;8.660;2023-11-21T11:55:15;10.23;92.40
69359;HTU21D;56520;49.066;8.660;2023-11-21T11:57:51;9.93;93.34
69359;HTU21D;56520;49.066;8.660;2023-11-21T12:00:36;9.70;94.28
69359;HTU21D;56520;49.066;8.660;2023-11-21T12:03:07;9.66;94.85
69359;HTU21D;56520;49.066;8.660;2023-11-21T12:05:34;9.61;95.19
69359;HTU21D;56520;49.066;8.660;2023-11-21T12:08:09;9.59;95.55
69359;HTU21D;56520;49.066;8.660;2023-11-21T12:10:37;9.59;95.75
69359;HTU21D;56520;49.066;8.660;2023-11-21T12:13:09;9.57;95.94
69359;HTU21D;56520;49.066;8.660;2023-11-21T12:15:35;9.52;96.04
69359;HTU21D;56520;49.066;8.660;2023-11-21T12:18:01;9.41;96.19
69359;HTU21D;56520;49.066;8.660;2023-11-21T12:20:27;9.36;96.41
69359;HTU21D;56520;49.066;8.660;2023-11-21T12:22:55;9.33;96.58
69359;HTU21D;56520;49.066;8.660;2023-11-21T12:25:25;9.33;96.73
69359;HTU21D;56520;49.066;8.660;2023-11-21T12:27:54;9.35;96.86
69359;HTU21D;56520;49.066;8.660;2023-11-21T12:30:24;9.36;96.95
69359;HTU21D;56520;49.066;8.660;2023-11-21T12:32:54;9.34;96.98
69359;HTU21D;56520;49.066;8.660;2023-11-21T12:35:22;9.26;97.00
69359;HTU21D;56520;49.066;8.660;2023-11-21T12:37:50;9.25;97.14
69359;HTU21D;56520;49.066;8.660;2023-11-21T12:40:17;9.27;97.21
69359;HTU21D;56520;49.066;8.660;2023-11-21T12:42:45;9.17;97.23
69359;HTU21D;56520;49.066;8.660;2023-11-21T12:47:50;9.18;97.45
69359;HTU21D;56520;49.066;8.660;2023-11-21T12:50:21;9.23;97.54
69359;HTU21D;56520;49.066;8.660;2023-11-21T12:52:57;9.32;97.59
69359;HTU21D;56520;49.066;8.660;2023-11-21T12:55:23;9.37;97.59
69359;HTU21D;56520;49.066;8.660;2023-11-21T12:57:51;9.40;97.58
69359;HTU21D;56520;49.066;8.660;2023-11-21T13:00:18;9.40;97.51
69359;HTU21D;56520;49.066;8.660;2023-11-21T13:02:57;9.40;97.51
69359;HTU21D;56520;49.066;8.660;2023-11-21T13:05:28;9.42;97.58
69359;HTU21D;56520;49.066;8.660;2023-11-21T13:07:59;9.47;97.59
69359;HTU21D;56520;49.066;8.660;2023-11-21T13:10:26;9.51;97.61
69359;HTU21D;56520;49.066;8.660;2023-11-21T13:13:02;9.55;97.61
69359;HTU21D;56520;49.066;8.660;2023-11-21T13:15:31;9.54;97.56
69359;HTU21D;56520;49.066;8.660;2023-11-21T13:17:58;9.53;97.59
69359;HTU21D;56520;49.066;8.660;2023-11-21T13:20:27;9.60;97.65
69359;HTU21D;56520;49.066;8.660;2023-11-21T13:22:54;9.62;97.68
69359;HTU21D;56520;49.066;8.660;2023-11-21T13:25:23;9.64;97.69
69359;HTU21D;56520;49.066;8.660;2023-11-21T13:27:48;9.66;97.73
69359;HTU21D;56520;49.066;8.660;2023-11-21T13:30:15;9.72;97.73
69359;HTU21D;56520;49.066;8.660;2023-11-21T13:32:42;9.72;97.76
69359;HTU21D;56520;49.066;8.660;2023-11-21T13:35:08;9.78;97.72
69359;HTU21D;56520;49.066;8.660;2023-11-21T13:37:40;9.69;97.59
69359;HTU21D;56520;49.066;8.660;2023-11-21T13:40:06;9.66;97.61
69359;HTU21D;56520;49.066;8.660;2023-11-21T13:42:40;9.70;97.65
69359;HTU21D;56520;49.066;8.660;2023-11-21T13:45:06;9.70;97.69
69359;HTU21D;56520;49.066;8.660;2023-11-21T13:47:32;9.74;97.78
69359;HTU21D;56520;49.066;8.660;2023-11-21T13:49:59;9.75;97.79
69359;HTU21D;56520;49.066;8.660;2023-11-21T13:52:26;9.74;97.81
69359;HTU21D;56520;49.066;8.660;2023-11-21T13:54:53;9.74;97.81
69359;HTU21D;56520;49.066;8.660;2023-11-21T13:57:18;9.69;97.83
69359;HTU21D;56520;49.066;8.660;2023-11-21T13:59:45;9.69;97.86
69359;HTU21D;56520;49.066;8.660;2023-11-21T14:02:11;9.68;97.91
69359;HTU21D;56520;49.066;8.660;2023-11-21T14:04:59;9.63;97.94
69359;HTU21D;56520;49.066;8.660;2023-11-21T14:07:26;9.64;98.04
69359;HTU21D;56520;49.066;8.660;2023-11-21T14:10:01;9.69;98.10
69359;HTU21D;56520;49.066;8.660;2023-11-21T14:12:27;9.67;98.08
69359;HTU21D;56520;49.066;8.660;2023-11-21T14:14:53;9.60;98.11
69359;HTU21D;56520;49.066;8.660;2023-11-21T14:17:19;9.60;98.21
69359;HTU21D;56520;49.066;8.660;2023-11-21T14:19:48;9.60;98.29
69359;HTU21D;56520;49.066;8.660;2023-11-21T14:22:14;9.62;98.39
69359;HTU21D;56520;49.066;8.660;2023-11-21T14:24:39;9.63;98.46
69359;HTU21D;56520;49.066;8.660;2023-11-21T14:27:12;9.70;98.53
69359;HTU21D;56520;49.066;8.660;2023-11-21T14:29:37;9.72;98.56
69359;HTU21D;56520;49.066;8.660;2023-11-21T14:32:05;9.70;98.53
69359;HTU21D;56520;49.066;8.660;2023-11-21T14:34:30;9.68;98.52
69359;HTU21D;56520;49.066;8.660;2023-11-21T14:36:56;9.69;98.50
69359;HTU21D;56520;49.066;8.660;2023-11-21T14:39:22;9.71;98.52
69359;HTU21D;56520;49.066;8.660;2023-11-21T14:41:54;9.71;98.49
69359;HTU21D;56520;49.066;8.660;2023-11-21T14:44:24;9.74;98.49
69359;HTU21D;56520;49.066;8.660;2023-11-21T14:46:53;9.72;98.48
69359;HTU21D;56520;49.066;8.660;2023-11-21T14:49:20;9.70;98.45
69359;HTU21D;56520;49.066;8.660;2023-11-21T14:51:51;9.63;98.42
69359;HTU21D;56520;49.066;8.660;2023-11-21T14:54:27;9.62;98.46
69359;HTU21D;56520;49.066;8.660;2023-11-21T14:57:15;9.61;98.47
69359;HTU21D;56520;49.066;8.660;2023-11-21T14:59:45;9.60;98.52
69359;HTU21D;56520;49.066;8.660;2023-11-21T15:02:17;9.61;98.52
69359;HTU21D;56520;49.066;8.660;2023-11-21T15:04:47;9.57;98.51
69359;HTU21D;56520;49.066;8.660;2023-11-21T15:07:13;9.55;98.52
69359;HTU21D;56520;49.066;8.660;2023-11-21T15:09:39;9.55;98.54
69359;HTU21D;56520;49.066;8.660;2023-11-21T15:12:07;9.56;98.56
69359;HTU21D;56520;49.066;8.660;2023-11-21T15:14:47;9.56;98.56
69359;HTU21D;56520;49.066;8.660;2023-11-21T15:17:15;9.51;98.55
69359;HTU21D;56520;49.066;8.660;2023-11-21T15:19:56;9.50;98.60
69359;HTU21D;56520;49.066;8.660;2023-11-21T15:22:21;9.48;98.61
69359;HTU21D;56520;49.066;8.660;2023-11-21T15:24:47;9.45;98.61
69359;HTU21D;56520;49.066;8.660;2023-11-21T15:27:14;9.41;98.63
69359;HTU21D;56520;49.066;8.660;2023-11-21T15:29:41;9.41;98.65
69359;HTU21D;56520;49.066;8.660;2023-11-21T15:32:07;9.39;98.67
69359;HTU21D;56520;49.066;8.660;2023-11-21T15:34:34;9.33;98.64
69359;HTU21D;56520;49.066;8.660;2023-11-21T15:37:00;9.27;98.68
69359;HTU21D;56520;49.066;8.660;2023-11-21T15:39:25;9.24;98.69
69359;HTU21D;56520;49.066;8.660;2023-11-21T15:41:54;9.21;98.71
69359;HTU21D;56520;49.066;8.660;2023-11-21T15:44:20;9.16;98.74